Impacts TAF Board
For situational awareness. Not to be used for flight planning purposes.
IDs:

KFKL - Franklin/Lamberton F, PA, US

Issued at 0520 UTC 07 Dec 2022
Updated at 0729 UTC 07 Dec 2022
Potential Impact None Slight Moderate High
Time<<07/20Z 07/21Z 07/22Z 07/23Z 08/00Z 08/01Z 08/02Z 08/03Z 08/04Z 08/05Z 08/06Z 08/07Z 08/08Z>>
Type PRVL PRVL PRVL PRVL PRVL PRVL PRVL PRVL PRVL PRVL
VIS 3 3 3 3 3 3 3 3 3 3
CIG 3 3 3 3 3 3 3 3 3 3
Cover OVC OVC OVC OVC OVC OVC OVC OVC OVC OVC
FltCat LIFR LIFR LIFR LIFR LIFR LIFR LIFR LIFR LIFR LIFR
WX BR BR BR BR BR BR BR BR BR BR
WDir 320 320 320 320 320 320 320 320 320 320
WSpd 5 5 5 5 5 5 5 5 5 5
WGst -- -- -- -- -- -- -- -- -- --
WSHgt -- -- -- -- -- -- -- -- -- --
WSDir -- -- -- -- -- -- -- -- -- --
WSSpd -- -- -- -- -- -- -- -- -- --
Raw TAF
KFKL 070520Z 0706/0806 17005KT 1/2SM -DZ FG OVC002
  FM071200 22003KT 1SM -DZ BR OVC002
  FM071700 32005KT 3SM BR OVC003


METAR Board
Radar Display
Forecast Discussion
For situational awareness. Not to be used for flight planning purposes.